Irvington, AL (36544)

8:33 PM CST on December 04, 2016 (GMT -0600)
Jamestown | | Change Station

Elev 95 ft 30.51 °N, 88.20 °W | Updated 20 seconds ago

Mostly Cloudy
Mostly Cloudy
64.6 °F
Feels Like 64.6 °F
N
0.0
Wind Variable Wind from West
Gusts 0.0 mph

Today
High -- | Low -- °F
--% Chance of Precip.
Yesterday
High -- | Low -- °F
Precip. -- in
Pressure 29.98 in
Visibility 10.0 miles
Clouds Few 700 ft
Scattered Clouds 5000 ft
Mostly Cloudy 7000 ft
Dew Point 64 °F
Humidity 99%
Rainfall 2.54 in
Snow Depth Not available.
6:35 AM 4:51 PM
Waxing Crescent, 27% visible
SPECI KMOB 050203Z 34010KT 10SM FEW007 SCT050 BKN070 17/17 A2998 RMK AO2 RAE00 P0000 T01720172 $
Pressure 29.98 in
Visibility 10.0 miles
Clouds Few 700 ft
Scattered Clouds 5000 ft
Mostly Cloudy 7000 ft
Dew Point 64 °F
Humidity 99%
Rainfall 2.54 in
Snow Depth Not available.
6:35 AM 4:51 PM
Waxing Crescent, 27% visible
SPECI KMOB 050203Z 34010KT 10SM FEW007 SCT050 BKN070 17/17 A2998 RMK AO2 RAE00 P0000 T01720172 $

10-Day Weather Forecast

Almanac

Astronomy

Dec. 04, 2016 Rise Set
Actual Time
Civil Twilight
Nautical Twilight
Astronomical Twilight
Moon
Length of Visible Light
Length of Day
Tomorrow will be .
, % of the Moon is Illuminated

Today's Extremes

State Highs State Lows

Community

WunderPhotos

Upload Photos

1,955,749 photos uploaded!

WunderBlog® & News

Nearby

Air Quality

  Air Quality AQ Index Pollutant
Not available.

Snow Depth

Station Depth Elevation

Earthquake Activity

City Distance Mag. Time & Date
Minimum magnitude displayed is 2.5.

Coastal Water Temperatures

Place Temperature

Stations

Nearby Weather Stations

Station Location Temp. Windchill Dew Point Humidity Wind Precip. Elev Updated Type
                   

Watches & Warnings

There are currently no watches in effect.